createdAt,value
2022-08-30T00:01:03.652Z,44.50
2022-08-30T00:03:43.814Z,44.60
2022-08-30T00:06:11.190Z,44.70
2022-08-30T00:08:38.645Z,44.60
2022-08-30T00:11:09.839Z,44.70
2022-08-30T00:13:37.627Z,44.70
2022-08-30T00:16:06.754Z,44.80
2022-08-30T00:18:35.482Z,44.90
2022-08-30T00:21:03.203Z,44.90
2022-08-30T00:23:30.322Z,44.90
2022-08-30T00:25:57.079Z,45.10
2022-08-30T00:28:24.087Z,45.30
2022-08-30T00:30:50.968Z,45.10
2022-08-30T00:33:18.193Z,45.30
2022-08-30T00:35:45.182Z,45.20
2022-08-30T00:38:13.213Z,45.30
2022-08-30T00:40:42.237Z,45.30
2022-08-30T00:43:14.123Z,45.40
2022-08-30T00:45:41.318Z,45.40
2022-08-30T00:48:08.360Z,45.40
2022-08-30T00:50:43.290Z,45.70
2022-08-30T00:53:17.700Z,45.70
2022-08-30T00:55:45.020Z,45.60
2022-08-30T00:58:19.874Z,45.60
2022-08-30T01:00:48.918Z,45.80
2022-08-30T01:03:16.435Z,45.90
2022-08-30T01:05:43.982Z,45.70
2022-08-30T01:08:10.886Z,45.80
2022-08-30T01:10:38.443Z,45.90
2022-08-30T01:13:05.985Z,46.10
2022-08-30T01:15:34.333Z,46.00
2022-08-30T01:18:02.619Z,46.40
2022-08-30T01:20:36.084Z,46.40
2022-08-30T01:23:15.846Z,46.30
2022-08-30T01:25:46.445Z,46.30
2022-08-30T01:28:21.582Z,46.40
2022-08-30T01:30:48.707Z,46.20
2022-08-30T01:33:15.787Z,46.20
2022-08-30T01:36:12.299Z,46.40
2022-08-30T01:38:47.733Z,46.90
2022-08-30T01:41:22.475Z,46.50
2022-08-30T01:43:51.206Z,46.80
2022-08-30T01:46:20.220Z,46.70
2022-08-30T01:48:51.972Z,46.80
2022-08-30T01:51:21.971Z,47.10
2022-08-30T01:53:49.090Z,47.10
2022-08-30T01:56:16.150Z,47.00
2022-08-30T01:58:43.522Z,47.60
2022-08-30T02:01:16.795Z,47.10
2022-08-30T02:03:44.986Z,47.20
2022-08-30T02:06:15.902Z,47.60
2022-08-30T02:08:43.734Z,47.70
2022-08-30T02:11:11.511Z,47.40
2022-08-30T02:13:40.330Z,47.40
2022-08-30T02:16:09.763Z,47.80
2022-08-30T02:18:39.279Z,47.60
2022-08-30T02:21:07.321Z,47.60
2022-08-30T02:23:34.883Z,47.50
2022-08-30T02:26:01.870Z,47.80
2022-08-30T02:28:29.125Z,48.00
2022-08-30T02:30:55.965Z,48.10
2022-08-30T02:33:22.806Z,48.00
2022-08-30T02:35:49.912Z,48.10
2022-08-30T02:38:19.926Z,48.40
2022-08-30T02:40:47.257Z,48.00
2022-08-30T02:43:14.248Z,48.10
2022-08-30T02:45:41.171Z,48.00
2022-08-30T02:48:08.826Z,48.10
2022-08-30T02:50:40.017Z,48.20
2022-08-30T02:53:06.871Z,48.30
2022-08-30T02:55:36.317Z,48.30
2022-08-30T02:58:03.417Z,48.70
2022-08-30T03:00:30.951Z,49.20
2022-08-30T03:02:58.546Z,48.60
2022-08-30T03:05:25.885Z,48.10
2022-08-30T03:07:52.754Z,48.50
2022-08-30T03:10:19.631Z,48.40
2022-08-30T03:12:47.943Z,48.30
2022-08-30T03:15:15.759Z,48.50
2022-08-30T03:17:42.629Z,48.40
2022-08-30T03:20:10.434Z,48.50
2022-08-30T03:22:37.594Z,48.60
2022-08-30T03:25:05.020Z,48.60
2022-08-30T03:27:32.198Z,48.80
2022-08-30T03:29:58.962Z,48.80
2022-08-30T03:32:26.046Z,48.70
2022-08-30T03:34:53.099Z,48.70
2022-08-30T03:37:23.308Z,48.70
2022-08-30T03:39:52.366Z,48.60
2022-08-30T03:42:20.036Z,48.60
2022-08-30T03:44:48.665Z,48.70
2022-08-30T03:47:15.675Z,48.70
2022-08-30T03:49:42.928Z,48.80
2022-08-30T03:52:09.854Z,48.90
2022-08-30T03:54:36.642Z,49.00
2022-08-30T03:57:05.072Z,49.50
2022-08-30T03:59:32.346Z,48.90
2022-08-30T04:01:59.264Z,49.00
2022-08-30T04:04:26.185Z,49.10
2022-08-30T04:06:53.033Z,49.10
2022-08-30T04:09:19.963Z,49.40
2022-08-30T04:11:47.205Z,49.20
2022-08-30T04:14:14.073Z,49.40
2022-08-30T04:16:40.923Z,49.50
2022-08-30T04:19:07.794Z,49.40
2022-08-30T04:21:35.072Z,49.30
2022-08-30T04:24:09.622Z,49.30
2022-08-30T04:26:36.696Z,49.50
2022-08-30T04:29:03.783Z,49.60
2022-08-30T04:31:31.339Z,49.60
2022-08-30T04:33:58.245Z,49.60
2022-08-30T04:36:25.057Z,49.60
2022-08-30T04:38:51.889Z,49.70
2022-08-30T04:41:19.790Z,49.60
2022-08-30T04:43:50.426Z,49.70
2022-08-30T04:46:18.956Z,50.20
2022-08-30T04:48:46.387Z,50.20
2022-08-30T04:51:15.610Z,49.90
2022-08-30T04:53:43.188Z,50.00
2022-08-30T04:56:16.642Z,50.20
2022-08-30T04:58:47.822Z,50.00
2022-08-30T05:01:20.396Z,50.40
2022-08-30T05:03:51.882Z,50.20
2022-08-30T05:06:19.587Z,50.60
2022-08-30T05:08:46.843Z,50.70
2022-08-30T05:11:15.529Z,50.70
2022-08-30T05:13:43.276Z,50.60
2022-08-30T05:16:10.296Z,50.60
2022-08-30T05:18:37.266Z,50.70
2022-08-30T05:21:03.978Z,50.70
2022-08-30T05:23:30.847Z,50.80
2022-08-30T05:25:57.647Z,50.80
2022-08-30T05:28:26.361Z,50.90
2022-08-30T05:30:53.359Z,50.90
2022-08-30T05:33:20.118Z,50.90
2022-08-30T05:35:46.925Z,51.00
2022-08-30T05:38:13.672Z,51.30
2022-08-30T05:40:42.040Z,51.10
2022-08-30T05:43:10.134Z,51.30
2022-08-30T05:45:37.959Z,51.60
2022-08-30T05:48:05.353Z,51.40
2022-08-30T05:50:33.380Z,51.40
2022-08-30T05:53:00.907Z,51.50
2022-08-30T05:55:27.652Z,51.50
2022-08-30T05:57:54.556Z,51.70
2022-08-30T06:00:21.603Z,51.60
2022-08-30T06:02:53.378Z,51.60
2022-08-30T06:05:20.173Z,51.60
2022-08-30T06:07:47.611Z,51.80
2022-08-30T06:10:15.422Z,51.90
2022-08-30T06:12:44.119Z,52.40
2022-08-30T06:15:11.509Z,51.90
2022-08-30T06:17:39.663Z,51.80
2022-08-30T06:20:07.238Z,51.90
2022-08-30T06:22:34.356Z,51.90
2022-08-30T06:25:01.187Z,52.10
2022-08-30T06:27:27.954Z,52.00
2022-08-30T06:29:54.716Z,51.90
2022-08-30T06:32:21.575Z,52.00
2022-08-30T06:34:48.635Z,52.00
2022-08-30T06:37:21.977Z,52.10
2022-08-30T06:39:58.481Z,51.90
2022-08-30T06:42:32.190Z,52.10
2022-08-30T06:45:11.050Z,52.10
2022-08-30T06:47:38.703Z,51.90
2022-08-30T06:50:06.127Z,51.90
2022-08-30T06:52:33.342Z,51.90
2022-08-30T06:55:01.457Z,51.60
2022-08-30T06:57:28.277Z,51.60
2022-08-30T06:59:57.295Z,51.80
2022-08-30T07:02:26.323Z,51.90
2022-08-30T07:04:53.418Z,51.90
2022-08-30T07:07:20.227Z,52.10
2022-08-30T07:09:47.224Z,51.90
2022-08-30T07:12:15.456Z,51.90
2022-08-30T07:14:43.052Z,51.90
2022-08-30T07:17:31.298Z,51.50
2022-08-30T07:20:01.229Z,51.60
2022-08-30T07:22:28.971Z,51.80
2022-08-30T07:24:55.720Z,52.00
2022-08-30T07:27:22.504Z,52.00
2022-08-30T07:29:49.820Z,52.10
2022-08-30T07:32:16.684Z,51.90
2022-08-30T07:34:43.521Z,52.10
2022-08-30T07:37:10.312Z,52.10
2022-08-30T07:39:47.773Z,51.80
2022-08-30T07:42:15.846Z,51.60
2022-08-30T07:44:42.603Z,51.80
2022-08-30T07:47:09.751Z,52.00
2022-08-30T07:49:37.078Z,51.70
2022-08-30T07:52:04.488Z,51.50
2022-08-30T07:54:31.288Z,52.00
2022-08-30T07:56:58.057Z,51.50
2022-08-30T07:59:25.168Z,51.60
2022-08-30T08:01:51.990Z,51.70
2022-08-30T08:04:19.501Z,51.80
2022-08-30T08:06:46.452Z,51.60
2022-08-30T08:09:13.788Z,51.60
2022-08-30T08:11:41.441Z,51.60
2022-08-30T08:14:08.470Z,51.90
2022-08-30T08:16:38.606Z,51.60
2022-08-30T08:19:09.007Z,51.80
2022-08-30T08:21:36.872Z,51.70
2022-08-30T08:24:04.014Z,51.70
2022-08-30T08:26:33.605Z,51.50
2022-08-30T08:29:00.417Z,51.50
2022-08-30T08:31:33.252Z,51.50
2022-08-30T08:34:03.033Z,51.50
2022-08-30T08:36:31.336Z,51.70
2022-08-30T08:38:58.690Z,51.30
2022-08-30T08:41:43.533Z,51.60
2022-08-30T08:44:50.809Z,51.30
2022-08-30T08:47:56.010Z,51.40
2022-08-30T08:50:24.191Z,51.30
2022-08-30T08:53:45.220Z,51.30
2022-08-30T08:56:12.632Z,51.20
2022-08-30T08:58:49.302Z,51.20
2022-08-30T09:01:19.026Z,51.10
2022-08-30T09:03:46.758Z,51.20
2022-08-30T09:06:45.416Z,51.20
2022-08-30T09:09:13.622Z,51.10
2022-08-30T09:11:42.202Z,51.10
2022-08-30T09:14:38.812Z,51.10
2022-08-30T09:17:09.650Z,51.00
2022-08-30T09:19:42.610Z,51.10
2022-08-30T09:22:31.136Z,51.10
2022-08-30T09:25:11.516Z,51.60
2022-08-30T09:27:46.874Z,51.00
2022-08-30T09:30:18.273Z,50.90
2022-08-30T09:32:57.147Z,50.90
2022-08-30T09:35:38.122Z,50.90
2022-08-30T09:38:18.101Z,50.80
2022-08-30T09:40:49.008Z,50.70
2022-08-30T09:43:31.606Z,50.50
2022-08-30T09:46:01.463Z,50.40
2022-08-30T09:48:37.699Z,50.40
2022-08-30T09:51:10.926Z,50.40
2022-08-30T09:54:18.608Z,50.30
2022-08-30T09:57:01.030Z,50.40
2022-08-30T09:59:33.847Z,50.30
2022-08-30T10:02:00.539Z,50.00
2022-08-30T10:04:47.747Z,50.00
2022-08-30T10:07:29.283Z,49.90
2022-08-30T10:10:07.417Z,49.80
2022-08-30T10:13:02.751Z,49.80
2022-08-30T10:15:32.206Z,49.50
2022-08-30T10:18:20.847Z,49.40
2022-08-30T10:21:19.166Z,49.40
2022-08-30T10:23:52.084Z,49.30
2022-08-30T10:26:39.978Z,49.30
2022-08-30T10:29:14.710Z,49.20
2022-08-30T10:31:52.255Z,49.10
2022-08-30T10:34:40.818Z,48.90
2022-08-30T10:37:11.845Z,48.90
2022-08-30T10:39:48.889Z,48.50
2022-08-30T10:42:24.585Z,48.80
2022-08-30T10:45:05.197Z,48.60
2022-08-30T10:47:41.772Z,48.60
2022-08-30T10:50:25.103Z,48.70
2022-08-30T10:52:59.335Z,48.70
2022-08-30T10:55:35.485Z,48.60
2022-08-30T10:58:06.266Z,48.80
2022-08-30T11:01:12.676Z,48.20
2022-08-30T11:03:53.083Z,48.10
2022-08-30T11:06:47.819Z,48.20
2022-08-30T11:09:26.684Z,48.40
2022-08-30T11:12:24.506Z,48.60
2022-08-30T11:14:53.965Z,48.50
2022-08-30T11:17:26.823Z,48.40
2022-08-30T11:19:56.663Z,48.10
2022-08-30T11:22:38.635Z,48.10
2022-08-30T11:25:13.971Z,48.30
2022-08-30T11:27:58.942Z,48.20
2022-08-30T11:30:27.092Z,48.00
2022-08-30T11:32:59.369Z,47.80
2022-08-30T11:35:37.537Z,47.40
2022-08-30T11:38:36.771Z,47.50
2022-08-30T11:41:09.658Z,47.50
2022-08-30T11:43:51.323Z,47.70
2022-08-30T11:46:26.047Z,47.20
2022-08-30T11:49:13.021Z,47.30
2022-08-30T11:52:27.201Z,46.80
2022-08-30T11:55:09.501Z,46.50
2022-08-30T11:57:58.728Z,46.90
2022-08-30T12:00:34.688Z,46.90
2022-08-30T12:03:05.360Z,46.70
2022-08-30T12:05:38.635Z,46.70
2022-08-30T12:08:12.541Z,46.90
2022-08-30T12:10:41.694Z,46.80
2022-08-30T12:13:09.435Z,46.90
2022-08-30T12:15:57.871Z,46.30
2022-08-30T12:18:33.782Z,46.70
2022-08-30T12:21:08.584Z,45.90
2022-08-30T12:23:48.410Z,46.30
2022-08-30T12:26:37.620Z,45.80
2022-08-30T12:29:29.789Z,45.50
2022-08-30T12:32:18.317Z,45.70
2022-08-30T12:34:45.059Z,45.60
2022-08-30T12:37:36.754Z,45.30
2022-08-30T12:40:09.097Z,45.50
2022-08-30T12:42:41.178Z,45.40
2022-08-30T12:45:14.564Z,45.40
2022-08-30T12:47:51.057Z,45.20
2022-08-30T12:50:22.967Z,44.70
2022-08-30T12:53:08.460Z,45.30
2022-08-30T12:55:57.010Z,45.00
2022-08-30T12:58:39.097Z,45.10
2022-08-30T13:01:27.395Z,45.30
2022-08-30T13:04:25.027Z,44.80
2022-08-30T13:06:56.014Z,44.20
2022-08-30T13:09:34.627Z,44.20
2022-08-30T13:12:04.970Z,44.30
2022-08-30T13:14:34.578Z,44.30
2022-08-30T13:17:18.517Z,43.90
2022-08-30T13:20:01.300Z,44.70
2022-08-30T13:22:34.150Z,43.30
2022-08-30T13:25:01.602Z,44.10
2022-08-30T13:27:29.396Z,43.10
2022-08-30T13:29:57.106Z,43.40
2022-08-30T13:32:24.419Z,43.20
2022-08-30T13:34:51.182Z,42.60
2022-08-30T13:40:13.403Z,43.10
2022-08-30T13:42:43.078Z,43.40
2022-08-30T13:48:00.882Z,42.30
2022-08-30T13:50:28.062Z,41.60
2022-08-30T13:52:54.821Z,41.90
2022-08-30T13:55:21.575Z,42.00
2022-08-30T13:57:56.680Z,41.60
2022-08-30T14:00:25.697Z,41.40
2022-08-30T14:02:56.111Z,41.70
2022-08-30T14:11:05.131Z,42.30
2022-08-30T14:13:32.014Z,42.50
2022-08-30T14:18:48.363Z,41.10
2022-08-30T14:21:16.210Z,41.00
2022-08-30T14:23:43.343Z,41.20
2022-08-30T14:26:19.930Z,40.70
2022-08-30T14:28:47.090Z,40.60
2022-08-30T14:31:19.998Z,40.80
2022-08-30T14:33:47.724Z,39.80
2022-08-30T14:36:15.693Z,40.00
2022-08-30T14:38:43.526Z,39.90
2022-08-30T14:41:10.958Z,39.70
2022-08-30T14:43:40.254Z,39.70
2022-08-30T14:46:08.810Z,39.70
2022-08-30T14:48:36.915Z,39.70
2022-08-30T14:51:15.370Z,40.10
2022-08-30T14:53:42.830Z,39.40
2022-08-30T14:56:12.290Z,39.50
2022-08-30T14:58:39.218Z,39.60
2022-08-30T15:01:08.815Z,39.80
2022-08-30T15:03:37.920Z,39.70
2022-08-30T15:06:05.948Z,39.50
2022-08-30T15:08:34.515Z,39.60
2022-08-30T15:11:07.678Z,39.40
2022-08-30T15:13:34.437Z,39.50
2022-08-30T15:16:01.237Z,39.50
2022-08-30T15:18:28.033Z,39.50
2022-08-30T15:20:55.025Z,39.40
2022-08-30T15:23:24.929Z,39.40
2022-08-30T15:25:51.913Z,39.40
2022-08-30T15:28:19.313Z,39.40
2022-08-30T15:30:46.387Z,39.50
2022-08-30T15:33:13.159Z,39.40
2022-08-30T15:35:41.493Z,39.30
2022-08-30T15:38:08.662Z,39.30
2022-08-30T15:40:39.434Z,39.30
2022-08-30T15:43:06.575Z,39.20
2022-08-30T15:45:33.654Z,39.40
2022-08-30T15:48:00.990Z,39.20
2022-08-30T15:50:28.386Z,39.20
2022-08-30T15:52:55.312Z,39.10
2022-08-30T15:55:22.154Z,39.30
2022-08-30T15:57:48.919Z,39.20
2022-08-30T16:00:16.130Z,39.30
2022-08-30T16:02:43.827Z,39.30
2022-08-30T16:05:10.790Z,39.20
2022-08-30T16:07:40.849Z,39.30
2022-08-30T16:10:09.029Z,39.20
2022-08-30T16:12:35.825Z,39.10
2022-08-30T16:15:02.572Z,39.10
2022-08-30T16:17:29.410Z,39.20
2022-08-30T16:19:58.893Z,39.00
2022-08-30T16:22:26.482Z,39.10
2022-08-30T16:24:53.497Z,39.20
2022-08-30T16:27:21.175Z,39.20
2022-08-30T16:29:48.561Z,39.10
2022-08-30T16:32:17.759Z,39.00
2022-08-30T16:34:45.150Z,39.00
2022-08-30T16:37:11.953Z,39.10
2022-08-30T16:39:38.719Z,39.10
2022-08-30T16:42:06.841Z,39.10
2022-08-30T16:44:33.717Z,39.10
2022-08-30T16:47:01.725Z,39.10
2022-08-30T16:49:28.613Z,39.20
2022-08-30T16:51:55.367Z,39.20
2022-08-30T16:54:23.678Z,39.10
2022-08-30T16:56:51.234Z,39.20
2022-08-30T16:59:18.885Z,39.20
2022-08-30T17:01:45.822Z,39.20
2022-08-30T17:04:18.204Z,39.30
2022-08-30T17:06:47.938Z,39.30
2022-08-30T17:09:16.840Z,39.30
2022-08-30T17:11:45.071Z,39.40
2022-08-30T17:14:11.859Z,39.40
2022-08-30T17:16:38.954Z,39.40
2022-08-30T17:19:08.421Z,39.40
2022-08-30T17:21:35.618Z,39.40
2022-08-30T17:24:03.207Z,39.40
2022-08-30T17:26:35.285Z,39.40
2022-08-30T17:29:02.778Z,39.40
2022-08-30T17:31:31.028Z,39.40
2022-08-30T17:34:03.461Z,39.50
2022-08-30T17:36:33.052Z,39.50
2022-08-30T17:39:10.349Z,39.40
2022-08-30T17:41:39.968Z,39.40
2022-08-30T17:44:12.542Z,39.40
2022-08-30T17:46:39.882Z,39.50
2022-08-30T17:49:10.419Z,39.50
2022-08-30T17:51:40.782Z,39.40
2022-08-30T17:54:09.186Z,39.50
2022-08-30T17:56:35.986Z,39.50
2022-08-30T17:59:05.433Z,39.50
2022-08-30T18:01:32.386Z,39.50
2022-08-30T18:04:02.089Z,39.50
2022-08-30T18:06:34.020Z,39.50
2022-08-30T18:09:04.284Z,39.60
2022-08-30T18:11:36.040Z,39.50
2022-08-30T18:14:04.584Z,39.60
2022-08-30T18:16:35.980Z,39.60
2022-08-30T18:19:09.618Z,39.60
2022-08-30T18:21:37.864Z,39.70
2022-08-30T18:24:05.749Z,40.20
2022-08-30T18:26:33.006Z,39.70
2022-08-30T18:29:00.583Z,39.70
2022-08-30T18:31:27.546Z,39.70
2022-08-30T18:33:58.874Z,39.70
2022-08-30T18:36:27.773Z,40.30
2022-08-30T18:38:54.821Z,39.70
2022-08-30T18:41:21.690Z,39.80
2022-08-30T18:43:48.693Z,39.80
2022-08-30T18:46:18.170Z,39.90
2022-08-30T18:48:46.470Z,40.00
2022-08-30T18:51:18.886Z,39.90
2022-08-30T18:53:47.278Z,39.90
2022-08-30T18:56:16.621Z,40.00
2022-08-30T18:58:45.049Z,40.00
2022-08-30T19:01:12.724Z,40.10
2022-08-30T19:03:40.702Z,40.30
2022-08-30T19:06:11.594Z,40.20
2022-08-30T19:08:40.194Z,40.20
2022-08-30T19:11:08.826Z,40.20
2022-08-30T19:13:37.327Z,40.20
2022-08-30T19:16:06.116Z,40.20
2022-08-30T19:18:34.454Z,40.30
2022-08-30T19:21:03.760Z,40.40
2022-08-30T19:23:34.376Z,40.50
2022-08-30T19:26:01.402Z,40.40
2022-08-30T19:28:28.501Z,40.50
2022-08-30T19:30:55.293Z,40.50
2022-08-30T19:33:22.061Z,40.60
2022-08-30T19:35:51.281Z,40.60
2022-08-30T19:38:19.976Z,40.60
2022-08-30T19:40:50.052Z,40.60
2022-08-30T19:43:20.700Z,40.50
2022-08-30T19:45:55.754Z,40.60
2022-08-30T19:48:31.994Z,40.70
2022-08-30T19:51:00.578Z,40.80
2022-08-30T19:53:27.370Z,40.80
2022-08-30T19:55:54.578Z,40.90
2022-08-30T19:58:21.654Z,40.80
2022-08-30T20:00:54.436Z,41.00
2022-08-30T20:03:28.074Z,41.10
2022-08-30T20:05:54.895Z,43.10
2022-08-30T20:08:22.057Z,42.90
2022-08-30T20:10:48.883Z,43.60
2022-08-30T20:13:17.213Z,41.10
2022-08-30T20:15:57.966Z,41.30
2022-08-30T20:18:26.463Z,41.60
2022-08-30T20:20:53.474Z,41.50
2022-08-30T20:26:08.437Z,42.00
2022-08-30T20:28:35.315Z,42.20
2022-08-30T20:31:04.710Z,42.40
2022-08-30T20:33:33.807Z,42.80
2022-08-30T20:36:01.751Z,43.20
2022-08-30T20:38:28.599Z,43.20
2022-08-30T20:40:58.881Z,43.60
2022-08-30T20:43:28.242Z,43.60
2022-08-30T20:45:55.972Z,43.80
2022-08-30T20:48:23.829Z,44.10
2022-08-30T20:50:50.573Z,44.10
2022-08-30T20:53:17.330Z,44.40
2022-08-30T20:55:47.049Z,44.60
2022-08-30T20:58:15.084Z,44.50
2022-08-30T21:00:45.847Z,44.60
2022-08-30T21:03:26.315Z,45.10
2022-08-30T21:05:56.350Z,45.50
2022-08-30T21:08:23.170Z,45.40
2022-08-30T21:10:50.071Z,45.30
2022-08-30T21:13:17.380Z,45.30
2022-08-30T21:15:47.240Z,45.50
2022-08-30T21:18:14.724Z,45.90
2022-08-30T21:20:42.032Z,45.80
2022-08-30T21:23:09.787Z,46.80
2022-08-30T21:25:41.758Z,46.30
2022-08-30T21:28:09.402Z,46.20
2022-08-30T21:30:37.427Z,46.30
2022-08-30T21:33:06.399Z,46.70
2022-08-30T21:35:52.403Z,46.40
2022-08-30T21:38:19.967Z,46.60
2022-08-30T21:40:48.440Z,46.60
2022-08-30T21:43:15.965Z,46.80
2022-08-30T21:45:44.438Z,46.90
2022-08-30T21:48:12.896Z,47.30
2022-08-30T21:50:41.743Z,48.60
2022-08-30T21:53:08.872Z,47.50
2022-08-30T21:55:35.626Z,47.40
2022-08-30T21:58:03.792Z,47.60
2022-08-30T22:00:32.033Z,47.50
2022-08-30T22:02:58.849Z,47.90
2022-08-30T22:05:25.782Z,47.60
2022-08-30T22:07:52.531Z,48.00
2022-08-30T22:10:21.326Z,47.80
2022-08-30T22:12:48.466Z,47.80
2022-08-30T22:15:15.529Z,48.00
2022-08-30T22:17:43.431Z,47.90
2022-08-30T22:20:11.888Z,47.00
2022-08-30T22:22:45.591Z,47.80
2022-08-30T22:25:12.485Z,49.10
2022-08-30T22:27:39.276Z,48.10
2022-08-30T22:30:06.632Z,48.20
2022-08-30T22:32:33.411Z,48.50
2022-08-30T22:35:00.157Z,48.50
2022-08-30T22:37:26.934Z,48.70
2022-08-30T22:39:53.754Z,48.70
2022-08-30T22:42:20.497Z,48.60
2022-08-30T22:44:48.329Z,48.80
2022-08-30T22:47:15.086Z,48.90
2022-08-30T22:49:41.840Z,48.80
2022-08-30T22:52:09.002Z,48.90
2022-08-30T22:54:37.081Z,48.90
2022-08-30T22:57:04.499Z,49.30
2022-08-30T22:59:32.506Z,49.30
2022-08-30T23:01:59.960Z,49.30
2022-08-30T23:04:26.845Z,49.40
2022-08-30T23:06:53.608Z,49.20
2022-08-30T23:09:20.378Z,49.20
2022-08-30T23:11:47.249Z,49.90
2022-08-30T23:14:14.115Z,49.30
2022-08-30T23:16:41.005Z,49.40
2022-08-30T23:19:07.874Z,49.50
2022-08-30T23:21:34.686Z,49.50
2022-08-30T23:24:20.224Z,49.60
2022-08-30T23:27:06.275Z,50.20
2022-08-30T23:29:51.969Z,49.80
2022-08-30T23:32:38.030Z,50.00
2022-08-30T23:35:29.690Z,49.80
2022-08-30T23:38:17.215Z,50.00
2022-08-30T23:41:02.218Z,50.10
2022-08-30T23:43:47.360Z,50.10
2022-08-30T23:46:33.198Z,50.30
2022-08-30T23:49:18.293Z,50.70
2022-08-30T23:52:03.927Z,50.40
2022-08-30T23:54:49.548Z,50.80
2022-08-30T23:57:34.796Z,50.50
